Delta Virtual Airport Information Service

Guatemala City La Aurora International Airport

ICAO: MGGT Country: Guatemala
Latitude: 14.5833 Longitude: -90.5274
Latest Arrival : DAC511 (MPTO-MGGT) Latest Departure : DAC609 (MGGT-SLLP)


WX CaptureLIVE
Data provided by noaa.gov | Fetched at 06:02:18

METAR : MGGT 271000Z 01016KT 9999 FEW012 SCT080 15/13 Q1022 A3018

TAF : MGGT 271000Z 01016KT 9999 FEW012 SCT080 15/13 Q1022 A3018


Runway Data for MGGT
Data provided by openaviationdata.com

Runway ID Mag Var Hdg Length Elevation Surface ILS Freq ILS Id ILS Slope
1 3 14° 9838 ft 4866 ft Concrete 110.1 IAAI 3
19 3 194° 9838 ft 4866 ft Concrete -- -- --

Guatemala City La Aurora International Airport, Guatemala
Use only for reference purposes



Not for navigational purposes.